Time;durP1;ratioP1;P1;durP2;ratioP2;P2;SDS_P1;SDS_P2;PMS_P1;PMS_P2;Temp;Humidity;BMP_temperature;BMP_pressure;BME280_temperature;BME280_humidity;BME280_pressure;Samples;Min_cycle;Max_cycle;Signal;HPM_P1;HPM_P2
2023/04/24 00:01:51;;;;;;;7.15;3.00;;;;;;;;;;5008382;28;20501;-58
2023/04/24 00:04:18;;;;;;;5.20;2.13;;;;;;;;;;5014610;28;20124;-58
2023/04/24 00:06:44;;;;;;;5.63;2.63;;;;;;;;;;5016606;28;20038;-58
2023/04/24 00:09:10;;;;;;;7.25;2.50;;;;;;;;;;5014611;28;20041;-58
2023/04/24 00:11:37;;;;;;;4.63;2.45;;;;;;;;;;5015382;28;20049;-59
2023/04/24 00:14:03;;;;;;;5.70;2.30;;;;;;;;;;5015033;28;20606;-58
2023/04/24 00:16:29;;;;;;;5.25;2.95;;;;;;;;;;5014586;28;20042;-58
2023/04/24 00:18:55;;;;;;;4.30;2.13;;;;;;;;;;5012696;28;20528;-58
2023/04/24 00:21:25;;;;;;;4.75;2.55;;;;;;;;;;5016012;28;20156;-57
2023/04/24 00:23:51;;;;;;;5.15;2.67;;;;;;;;;;5013136;28;20631;-57
2023/04/24 00:26:17;;;;;;;2.90;2.03;;;;;;;;;;5014510;28;20042;-58
2023/04/24 00:28:43;;;;;;;5.97;2.60;;;;;;;;;;5015381;28;20056;-57
2023/04/24 00:31:09;;;;;;;4.50;2.10;;;;;;;;;;5014854;28;20496;-57
2023/04/24 00:33:35;;;;;;;4.38;2.53;;;;;;;;;;5015026;28;20136;-57
2023/04/24 00:36:02;;;;;;;6.55;4.20;;;;;;;;;;5014776;28;20046;-57
2023/04/24 00:38:28;;;;;;;6.30;2.30;;;;;;;;;;5015101;28;20120;-58
2023/04/24 00:40:54;;;;;;;5.97;2.58;;;;;;;;;;5015120;28;20532;-57
2023/04/24 00:43:20;;;;;;;5.03;2.28;;;;;;;;;;5014285;28;20699;-57
2023/04/24 00:45:46;;;;;;;4.63;2.20;;;;;;;;;;5015239;28;20037;-57
2023/04/24 00:48:12;;;;;;;3.83;2.25;;;;;;;;;;5013882;28;20046;-58
2023/04/24 00:50:39;;;;;;;4.53;2.60;;;;;;;;;;5015140;28;20232;-58
2023/04/24 00:53:05;;;;;;;5.95;2.78;;;;;;;;;;5014430;28;20050;-58
2023/04/24 00:55:32;;;;;;;4.40;2.25;;;;;;;;;;5015257;28;20475;-58
2023/04/24 00:57:59;;;;;;;5.72;1.95;;;;;;;;;;5013960;28;20042;-58
2023/04/24 01:00:25;;;;;;;4.32;1.80;;;;;;;;;;5013768;28;20049;-59
2023/04/24 01:02:53;;;;;;;4.60;1.88;;;;;;;;;;5014572;28;20052;-58
2023/04/24 01:05:19;;;;;;;5.82;3.33;;;;;;;;;;5013747;28;20570;-58
2023/04/24 01:07:48;;;;;;;7.93;2.67;;;;;;;;;;5014920;28;20819;-58
2023/04/24 01:10:14;;;;;;;5.40;2.88;;;;;;;;;;5013876;28;20052;-58
2023/04/24 01:12:40;;;;;;;3.67;1.77;;;;;;;;;;5031030;28;20116;-58
2023/04/24 01:15:07;;;;;;;3.50;2.22;;;;;;;;;;5013449;28;20034;-58
2023/04/24 01:17:33;;;;;;;8.02;3.42;;;;;;;;;;5015179;28;20508;-58
2023/04/24 01:20:00;;;;;;;4.57;3.03;;;;;;;;;;5013545;28;20038;-58
2023/04/24 01:22:27;;;;;;;4.22;2.63;;;;;;;;;;5015063;28;20742;-58
2023/04/24 01:24:53;;;;;;;7.18;2.38;;;;;;;;;;5013995;28;20042;-58
2023/04/24 01:27:20;;;;;;;7.18;3.83;;;;;;;;;;5014406;28;20045;-58
2023/04/24 01:29:47;;;;;;;6.57;3.30;;;;;;;;;;5013495;28;20140;-58
2023/04/24 01:32:13;;;;;;;6.65;3.50;;;;;;;;;;5013382;28;20169;-58
2023/04/24 01:34:39;;;;;;;5.45;2.60;;;;;;;;;;5015147;28;20097;-58
2023/04/24 01:37:06;;;;;;;15.45;3.03;;;;;;;;;;5013755;28;20069;-58
2023/04/24 01:39:33;;;;;;;7.63;2.30;;;;;;;;;;5014521;28;20041;-58
2023/04/24 01:42:02;;;;;;;4.15;3.17;;;;;;;;;;5013822;28;20050;-57
2023/04/24 01:44:28;;;;;;;9.18;2.63;;;;;;;;;;5014444;28;20042;-58
2023/04/24 01:46:55;;;;;;;8.45;2.90;;;;;;;;;;5014699;28;20053;-58
2023/04/24 01:49:21;;;;;;;9.73;3.10;;;;;;;;;;5013270;28;20046;-58
2023/04/24 01:51:47;;;;;;;6.03;2.75;;;;;;;;;;5013502;28;20065;-57
2023/04/24 01:54:13;;;;;;;5.13;2.67;;;;;;;;;;5013656;28;20581;-58
2023/04/24 01:56:43;;;;;;;5.78;3.55;;;;;;;;;;5014530;28;20425;-59
2023/04/24 01:59:12;;;;;;;5.63;3.38;;;;;;;;;;5013167;28;20136;-58
2023/04/24 02:01:39;;;;;;;4.72;2.75;;;;;;;;;;5014335;28;20042;-58
2023/04/24 02:04:06;;;;;;;3.40;2.42;;;;;;;;;;5014455;28;20033;-58
2023/04/24 02:06:32;;;;;;;4.95;2.35;;;;;;;;;;5013275;28;20061;-58
2023/04/24 02:08:59;;;;;;;7.55;2.78;;;;;;;;;;5013618;28;20038;-58
2023/04/24 02:11:25;;;;;;;9.45;3.20;;;;;;;;;;5012637;28;20125;-58
2023/04/24 02:13:52;;;;;;;6.00;2.85;;;;;;;;;;5013745;28;20053;-58
2023/04/24 02:16:18;;;;;;;6.00;2.17;;;;;;;;;;5012904;28;20129;-58
2023/04/24 02:18:44;;;;;;;6.63;2.45;;;;;;;;;;5014568;28;20038;-58
2023/04/24 02:21:11;;;;;;;9.73;3.88;;;;;;;;;;5012712;28;20623;-58
2023/04/24 02:23:37;;;;;;;6.32;2.50;;;;;;;;;;5013841;28;20092;-58
2023/04/24 02:26:03;;;;;;;8.85;2.72;;;;;;;;;;5013206;28;20046;-58
2023/04/24 02:28:29;;;;;;;7.78;2.60;;;;;;;;;;5013584;28;20078;-58
2023/04/24 02:30:55;;;;;;;5.72;3.08;;;;;;;;;;5013019;28;20138;-58
2023/04/24 02:33:21;;;;;;;6.20;3.20;;;;;;;;;;5012936;28;20038;-58
2023/04/24 02:35:47;;;;;;;4.85;2.65;;;;;;;;;;5013007;28;20038;-57
2023/04/24 02:38:13;;;;;;;6.28;2.92;;;;;;;;;;5013308;28;20045;-57
2023/04/24 02:40:40;;;;;;;9.00;2.95;;;;;;;;;;5012707;28;20507;-59
2023/04/24 02:43:06;;;;;;;8.63;2.90;;;;;;;;;;5014306;28;20144;-58
2023/04/24 02:45:34;;;;;;;5.80;2.70;;;;;;;;;;5017164;28;20120;-58
2023/04/24 02:48:00;;;;;;;3.55;1.75;;;;;;;;;;5017420;28;20575;-58
2023/04/24 02:50:26;;;;;;;15.60;2.80;;;;;;;;;;5047939;28;20049;-58
2023/04/24 02:52:52;;;;;;;5.70;2.45;;;;;;;;;;5016565;28;20052;-58
2023/04/24 02:55:18;;;;;;;4.90;2.05;;;;;;;;;;5017112;28;20048;-58
2023/04/24 02:57:45;;;;;;;10.57;3.00;;;;;;;;;;5015765;28;20045;-58
2023/04/24 03:00:11;;;;;;;6.45;2.70;;;;;;;;;;5016777;28;20056;-58
2023/04/24 03:02:37;;;;;;;5.03;2.67;;;;;;;;;;5015815;28;20060;-58
2023/04/24 03:05:04;;;;;;;5.72;2.70;;;;;;;;;;5016925;28;20519;-58
2023/04/24 03:07:31;;;;;;;5.25;2.75;;;;;;;;;;5031950;28;20090;-58
2023/04/24 03:09:58;;;;;;;8.15;3.03;;;;;;;;;;5016024;28;20578;-58
2023/04/24 03:12:24;;;;;;;4.35;2.45;;;;;;;;;;5015459;28;20429;-59
2023/04/24 03:14:50;;;;;;;5.55;2.45;;;;;;;;;;5016436;28;20042;-58
2023/04/24 03:17:16;;;;;;;5.55;2.45;;;;;;;;;;5016027;28;20490;-58
2023/04/24 03:19:42;;;;;;;7.70;4.28;;;;;;;;;;5015749;28;20640;-59
2023/04/24 03:22:09;;;;;;;10.18;3.83;;;;;;;;;;5015882;28;20053;-58
2023/04/24 03:24:35;;;;;;;5.35;2.80;;;;;;;;;;5013957;28;20468;-58
2023/04/24 03:27:01;;;;;;;7.78;3.40;;;;;;;;;;5015782;28;20590;-58
2023/04/24 03:29:27;;;;;;;5.93;3.25;;;;;;;;;;5015674;28;20050;-58
2023/04/24 03:31:53;;;;;;;8.25;2.70;;;;;;;;;;5016393;28;20034;-58
2023/04/24 03:34:19;;;;;;;6.50;2.65;;;;;;;;;;5015255;28;20839;-59
2023/04/24 03:36:47;;;;;;;6.93;4.05;;;;;;;;;;5008646;28;20034;-59
2023/04/24 03:39:13;;;;;;;11.80;2.92;;;;;;;;;;5015387;28;20089;-58
2023/04/24 03:41:39;;;;;;;4.25;2.42;;;;;;;;;;5015699;28;20049;-58
2023/04/24 03:44:06;;;;;;;5.57;2.58;;;;;;;;;;5015267;28;20050;-58
2023/04/24 03:46:32;;;;;;;10.23;2.80;;;;;;;;;;5016102;28;20042;-58
2023/04/24 03:48:58;;;;;;;5.95;2.53;;;;;;;;;;5014615;28;20046;-58
2023/04/24 03:51:24;;;;;;;5.50;2.55;;;;;;;;;;5016850;28;20042;-59
2023/04/24 03:53:50;;;;;;;11.95;4.68;;;;;;;;;;5047140;28;20112;-58
2023/04/24 03:56:16;;;;;;;7.00;2.63;;;;;;;;;;5017136;28;20141;-59
2023/04/24 03:58:42;;;;;;;5.93;2.90;;;;;;;;;;5015688;28;20053;-58
2023/04/24 04:01:08;;;;;;;7.18;3.50;;;;;;;;;;5015207;28;20074;-58
2023/04/24 04:03:34;;;;;;;8.20;3.05;;;;;;;;;;5031206;28;20104;-58
2023/04/24 04:06:00;;;;;;;8.57;3.25;;;;;;;;;;5015716;28;20582;-58
2023/04/24 04:08:26;;;;;;;8.10;3.53;;;;;;;;;;5015436;28;20050;-58
2023/04/24 04:10:53;;;;;;;10.07;2.72;;;;;;;;;;5016480;28;20579;-58
2023/04/24 04:13:19;;;;;;;3.70;2.30;;;;;;;;;;5014842;28;20570;-58
2023/04/24 04:15:45;;;;;;;7.75;3.53;;;;;;;;;;5015986;28;20992;-58
2023/04/24 04:18:11;;;;;;;8.60;2.88;;;;;;;;;;5014150;28;20077;-58
2023/04/24 04:20:37;;;;;;;5.43;3.08;;;;;;;;;;5014996;28;20044;-58
2023/04/24 04:23:03;;;;;;;4.15;2.63;;;;;;;;;;5015006;28;20057;-59
2023/04/24 04:25:29;;;;;;;5.28;2.60;;;;;;;;;;5015697;28;20537;-58
2023/04/24 04:27:55;;;;;;;12.23;3.17;;;;;;;;;;5015078;28;20042;-58
2023/04/24 04:30:23;;;;;;;5.05;3.33;;;;;;;;;;5015821;28;20048;-58
2023/04/24 04:32:49;;;;;;;7.82;2.88;;;;;;;;;;5014063;28;20049;-58
2023/04/24 04:35:15;;;;;;;5.18;2.63;;;;;;;;;;5015862;28;20555;-58
2023/04/24 04:37:41;;;;;;;7.45;2.58;;;;;;;;;;5014279;28;20434;-58
2023/04/24 04:40:11;;;;;;;10.65;2.50;;;;;;;;;;5014535;28;20045;-58
2023/04/24 04:42:40;;;;;;;5.75;2.25;;;;;;;;;;5015308;28;20054;-58
2023/04/24 04:45:08;;;;;;;6.03;2.65;;;;;;;;;;5015311;28;20137;-59
2023/04/24 04:47:34;;;;;;;5.90;3.60;;;;;;;;;;5014565;28;20054;-59
2023/04/24 04:50:01;;;;;;;5.68;2.67;;;;;;;;;;5014881;28;20045;-58
2023/04/24 04:52:28;;;;;;;4.50;3.03;;;;;;;;;;5014147;28;20058;-58
2023/04/24 04:54:54;;;;;;;6.40;3.22;;;;;;;;;;5014917;28;20123;-59
2023/04/24 04:57:20;;;;;;;5.78;2.97;;;;;;;;;;5013628;28;20491;-58
2023/04/24 04:59:46;;;;;;;5.28;3.10;;;;;;;;;;5015088;28;20512;-59
2023/04/24 05:02:12;;;;;;;10.95;4.43;;;;;;;;;;5013541;28;20120;-58
2023/04/24 05:04:38;;;;;;;6.85;3.00;;;;;;;;;;5013888;28;20042;-58
2023/04/24 05:07:06;;;;;;;11.57;3.92;;;;;;;;;;5013911;28;20042;-58
2023/04/24 05:09:32;;;;;;;9.80;3.60;;;;;;;;;;5015444;28;20042;-58
2023/04/24 05:11:58;;;;;;;7.65;4.18;;;;;;;;;;5014055;28;20097;-58
2023/04/24 05:14:24;;;;;;;7.18;3.42;;;;;;;;;;5006810;28;20038;-58
2023/04/24 05:16:50;;;;;;;7.30;3.53;;;;;;;;;;5014491;28;20053;-58
2023/04/24 05:19:16;;;;;;;7.35;3.42;;;;;;;;;;5014276;28;20088;-58
2023/04/24 05:21:43;;;;;;;10.30;3.20;;;;;;;;;;5013854;28;20045;-58
2023/04/24 05:24:09;;;;;;;6.40;3.42;;;;;;;;;;5014913;28;20469;-58
2023/04/24 05:26:35;;;;;;;6.15;3.83;;;;;;;;;;5013933;28;20096;-57
2023/04/24 05:29:02;;;;;;;6.05;2.85;;;;;;;;;;5014482;28;20663;-58
2023/04/24 05:31:28;;;;;;;5.45;3.38;;;;;;;;;;5013994;28;20134;-58
2023/04/24 05:33:54;;;;;;;6.30;3.92;;;;;;;;;;5014767;28;20570;-58
2023/04/24 05:36:20;;;;;;;4.38;3.28;;;;;;;;;;5020493;28;20520;-58
2023/04/24 05:38:46;;;;;;;7.15;3.53;;;;;;;;;;5014300;28;20046;-58
2023/04/24 05:41:12;;;;;;;7.88;3.55;;;;;;;;;;5015123;28;20053;-58
2023/04/24 05:43:38;;;;;;;6.28;3.15;;;;;;;;;;5014482;28;20148;-58
2023/04/24 05:46:04;;;;;;;14.57;5.03;;;;;;;;;;5013446;28;20409;-58
2023/04/24 05:48:31;;;;;;;8.55;3.10;;;;;;;;;;5015580;28;20041;-58
2023/04/24 05:50:57;;;;;;;7.30;3.63;;;;;;;;;;5013279;28;20042;-58
2023/04/24 05:53:23;;;;;;;6.30;3.38;;;;;;;;;;5013979;28;20045;-58
2023/04/24 05:55:49;;;;;;;5.05;2.70;;;;;;;;;;5014303;28;20559;-58
2023/04/24 05:58:15;;;;;;;8.45;3.15;;;;;;;;;;5014165;28;20072;-58
2023/04/24 06:00:44;;;;;;;5.78;3.10;;;;;;;;;;5014163;28;20117;-58
2023/04/24 06:03:10;;;;;;;6.88;3.25;;;;;;;;;;5013112;28;20049;-58
2023/04/24 06:05:36;;;;;;;8.32;4.32;;;;;;;;;;5015023;28;20052;-58
2023/04/24 06:08:02;;;;;;;8.68;3.72;;;;;;;;;;5013165;28;20042;-59
2023/04/24 06:10:28;;;;;;;7.05;3.25;;;;;;;;;;5014254;28;20466;-58
2023/04/24 06:12:59;;;;;;;6.72;2.85;;;;;;;;;;5013690;28;20046;-58
2023/04/24 06:15:25;;;;;;;5.35;3.45;;;;;;;;;;5012977;28;20065;-58
2023/04/24 06:17:51;;;;;;;7.28;2.80;;;;;;;;;;5015575;28;20049;-59
2023/04/24 06:20:18;;;;;;;6.00;3.47;;;;;;;;;;5017495;28;20046;-59
2023/04/24 06:22:44;;;;;;;10.35;3.80;;;;;;;;;;5017081;28;20174;-59
2023/04/24 06:25:10;;;;;;;5.22;2.33;;;;;;;;;;5016872;28;20210;-59
2023/04/24 06:27:36;;;;;;;6.63;3.08;;;;;;;;;;5015509;28;20038;-59
2023/04/24 06:30:02;;;;;;;6.97;3.83;;;;;;;;;;5016311;28;20042;-60
2023/04/24 06:32:30;;;;;;;5.13;3.25;;;;;;;;;;5031161;28;20081;-60
2023/04/24 06:34:56;;;;;;;4.78;3.08;;;;;;;;;;5017591;28;20046;-59
2023/04/24 06:37:23;;;;;;;8.00;3.80;;;;;;;;;;5017111;28;20050;-60
2023/04/24 06:39:49;;;;;;;10.27;3.67;;;;;;;;;;5049340;28;20045;-59
2023/04/24 06:42:15;;;;;;;7.55;3.58;;;;;;;;;;5047213;28;20053;-58
2023/04/24 06:44:41;;;;;;;8.52;4.35;;;;;;;;;;5017570;28;20122;-59
2023/04/24 06:47:08;;;;;;;5.47;3.80;;;;;;;;;;5016198;28;20034;-59
2023/04/24 06:49:35;;;;;;;9.80;4.18;;;;;;;;;;5016606;28;20046;-57
2023/04/24 06:52:01;;;;;;;5.80;4.28;;;;;;;;;;5016939;28;20042;-57
2023/04/24 06:54:27;;;;;;;9.52;3.47;;;;;;;;;;5016963;28;20125;-58
2023/04/24 06:56:53;;;;;;;11.90;4.22;;;;;;;;;;5048083;28;20092;-57
2023/04/24 06:59:19;;;;;;;11.30;3.03;;;;;;;;;;5016445;28;20030;-57
2023/04/24 07:01:45;;;;;;;8.60;3.88;;;;;;;;;;5016335;28;20130;-58
2023/04/24 07:04:12;;;;;;;8.27;3.25;;;;;;;;;;5016379;28;20153;-58
2023/04/24 07:06:39;;;;;;;10.23;4.55;;;;;;;;;;5016028;28;20077;-57
2023/04/24 07:09:05;;;;;;;5.38;2.70;;;;;;;;;;5016039;28;20046;-58
2023/04/24 07:11:32;;;;;;;9.52;4.57;;;;;;;;;;5032801;28;20042;-58
2023/04/24 07:13:58;;;;;;;7.63;4.10;;;;;;;;;;5015984;28;20507;-57
2023/04/24 07:16:24;;;;;;;6.30;3.88;;;;;;;;;;5015941;28;20539;-57
2023/04/24 07:18:51;;;;;;;7.60;4.03;;;;;;;;;;5015758;28;20038;-58
2023/04/24 07:21:17;;;;;;;9.10;3.72;;;;;;;;;;5015470;28;20583;-57
2023/04/24 07:23:43;;;;;;;6.43;3.63;;;;;;;;;;5015437;28;20117;-58
2023/04/24 07:26:09;;;;;;;7.97;3.45;;;;;;;;;;5015369;28;20053;-58
2023/04/24 07:28:35;;;;;;;5.82;3.28;;;;;;;;;;5015397;28;20496;-57
2023/04/24 07:31:01;;;;;;;8.40;4.25;;;;;;;;;;5016885;28;20049;-57
2023/04/24 07:33:27;;;;;;;10.60;3.85;;;;;;;;;;5015888;28;20053;-57
2023/04/24 07:35:54;;;;;;;5.13;2.60;;;;;;;;;;5016305;28;20049;-57
2023/04/24 07:38:21;;;;;;;8.52;3.80;;;;;;;;;;5032209;28;20588;-58
2023/04/24 07:40:48;;;;;;;7.10;3.38;;;;;;;;;;5015397;28;20072;-58
2023/04/24 07:43:14;;;;;;;8.05;3.50;;;;;;;;;;5017294;28;20116;-58
2023/04/24 07:45:41;;;;;;;5.72;3.13;;;;;;;;;;5016242;28;20148;-58
2023/04/24 07:48:08;;;;;;;7.07;3.92;;;;;;;;;;5015866;28;20531;-58
2023/04/24 07:50:36;;;;;;;9.70;3.65;;;;;;;;;;5016147;28;20041;-58
2023/04/24 07:53:02;;;;;;;6.07;4.28;;;;;;;;;;5016045;28;20050;-57
2023/04/24 07:55:28;;;;;;;9.82;4.28;;;;;;;;;;5014941;28;20109;-58
2023/04/24 07:57:54;;;;;;;7.97;3.88;;;;;;;;;;5016213;28;20049;-58
2023/04/24 08:00:20;;;;;;;7.55;4.00;;;;;;;;;;5015657;28;20208;-58
2023/04/24 08:02:46;;;;;;;9.38;3.55;;;;;;;;;;5015720;28;20428;-58
2023/04/24 08:05:12;;;;;;;12.55;3.80;;;;;;;;;;5014690;28;20099;-58
2023/04/24 08:07:39;;;;;;;9.45;4.65;;;;;;;;;;5015443;28;20053;-58
2023/04/24 08:10:05;;;;;;;8.73;4.55;;;;;;;;;;5015442;28;20053;-58
2023/04/24 08:12:31;;;;;;;8.10;4.20;;;;;;;;;;5015394;28;20052;-58
2023/04/24 08:14:57;;;;;;;6.28;4.32;;;;;;;;;;5015954;28;20050;-58
2023/04/24 08:17:24;;;;;;;10.18;3.80;;;;;;;;;;5014398;28;20042;-59
2023/04/24 08:19:52;;;;;;;7.95;5.10;;;;;;;;;;5015155;28;20524;-58
2023/04/24 08:22:19;;;;;;;5.22;3.78;;;;;;;;;;5014049;28;20438;-58
2023/04/24 08:24:45;;;;;;;8.57;6.03;;;;;;;;;;5015750;28;20116;-58
2023/04/24 08:27:11;;;;;;;6.07;4.95;;;;;;;;;;5015111;28;20046;-58
2023/04/24 08:29:37;;;;;;;6.53;4.47;;;;;;;;;;5014513;28;20045;-58
2023/04/24 08:32:03;;;;;;;9.90;4.18;;;;;;;;;;5015607;28;20053;-59
2023/04/24 08:34:29;;;;;;;9.52;4.40;;;;;;;;;;5013512;28;20033;-58
2023/04/24 08:36:55;;;;;;;7.43;5.30;;;;;;;;;;5015709;28;20045;-58
2023/04/24 08:39:21;;;;;;;23.35;5.47;;;;;;;;;;5013384;28;20120;-58
2023/04/24 08:41:49;;;;;;;7.30;4.82;;;;;;;;;;5015709;28;20054;-58
2023/04/24 08:44:15;;;;;;;8.23;3.95;;;;;;;;;;5013971;28;20061;-58
2023/04/24 08:46:43;;;;;;;10.98;4.22;;;;;;;;;;5015317;28;20192;-58
2023/04/24 08:49:09;;;;;;;10.27;4.15;;;;;;;;;;5013639;28;20045;-58
2023/04/24 08:51:37;;;;;;;8.98;4.63;;;;;;;;;;5015385;28;20048;-58
2023/04/24 08:54:04;;;;;;;6.35;4.88;;;;;;;;;;5013705;28;20046;-59
2023/04/24 08:56:30;;;;;;;10.40;5.35;;;;;;;;;;5007629;28;20069;-58
2023/04/24 08:58:57;;;;;;;9.00;4.65;;;;;;;;;;5014200;28;20076;-58
2023/04/24 09:01:23;;;;;;;8.20;4.18;;;;;;;;;;5014010;28;20045;-58
2023/04/24 09:03:50;;;;;;;8.18;4.95;;;;;;;;;;5014953;28;20544;-58
2023/04/24 09:06:18;;;;;;;7.35;4.28;;;;;;;;;;5015027;28;20488;-58
2023/04/24 09:08:44;;;;;;;11.60;4.85;;;;;;;;;;5013843;28;20121;-58
2023/04/24 09:11:10;;;;;;;11.63;5.38;;;;;;;;;;5013927;28;20149;-58
2023/04/24 09:13:37;;;;;;;7.05;3.85;;;;;;;;;;5012878;28;20129;-58
2023/04/24 09:16:03;;;;;;;12.40;5.68;;;;;;;;;;5014216;28;20624;-58
2023/04/24 09:18:29;;;;;;;8.55;5.18;;;;;;;;;;5014225;28;20042;-58
2023/04/24 09:21:00;;;;;;;16.83;8.93;;;;;;;;;;5014597;28;20046;-58
2023/04/24 09:23:35;;;;;;;8.57;5.18;;;;;;;;;;5013750;28;20174;-58
2023/04/24 09:26:02;;;;;;;8.35;4.88;;;;;;;;;;5014328;28;20056;-58
2023/04/24 09:28:41;;;;;;;8.00;4.43;;;;;;;;;;5014689;28;20134;-58
2023/04/24 09:31:17;;;;;;;8.00;3.88;;;;;;;;;;5014655;28;20703;-57
2023/04/24 09:33:56;;;;;;;11.10;5.07;;;;;;;;;;5014670;28;20046;-58
2023/04/24 09:36:33;;;;;;;4.13;3.15;;;;;;;;;;5014283;28;20048;-58
2023/04/24 09:39:02;;;;;;;9.13;4.85;;;;;;;;;;5014689;28;20560;-58
2023/04/24 09:41:28;;;;;;;10.43;4.97;;;;;;;;;;5014584;28;20049;-58
2023/04/24 09:43:55;;;;;;;7.63;3.65;;;;;;;;;;5013706;28;20634;-58
2023/04/24 09:46:22;;;;;;;5.78;4.10;;;;;;;;;;5014163;28;20038;-58
2023/04/24 09:48:48;;;;;;;7.68;3.63;;;;;;;;;;5012916;28;20050;-58
2023/04/24 09:51:15;;;;;;;6.80;2.92;;;;;;;;;;5019351;28;20042;-58
2023/04/24 09:53:46;;;;;;;8.48;3.40;;;;;;;;;;5021170;28;20128;-58
2023/04/24 09:56:15;;;;;;;9.48;3.35;;;;;;;;;;5019124;28;20096;-58
2023/04/24 09:58:41;;;;;;;4.20;2.90;;;;;;;;;;5035278;28;20080;-58
2023/04/24 10:01:07;;;;;;;5.00;3.60;;;;;;;;;;5020177;28;20116;-58
2023/04/24 10:03:34;;;;;;;6.15;3.25;;;;;;;;;;5019478;28;20053;-58
2023/04/24 10:06:01;;;;;;;10.63;5.28;;;;;;;;;;5036735;28;20130;-58
2023/04/24 10:08:33;;;;;;;8.52;3.70;;;;;;;;;;5020152;28;20057;-58
2023/04/24 10:11:00;;;;;;;7.93;3.65;;;;;;;;;;5020876;28;20057;-58
2023/04/24 10:13:27;;;;;;;6.43;3.67;;;;;;;;;;5019512;28;20565;-58
2023/04/24 10:15:53;;;;;;;7.95;3.70;;;;;;;;;;5020449;28;20046;-58
2023/04/24 10:18:21;;;;;;;5.22;2.97;;;;;;;;;;5019341;28;20033;-58
2023/04/24 10:20:48;;;;;;;6.97;3.65;;;;;;;;;;5020092;28;20053;-58
2023/04/24 10:23:14;;;;;;;6.28;3.45;;;;;;;;;;5018941;28;20050;-58
2023/04/24 10:25:41;;;;;;;4.20;3.10;;;;;;;;;;5020215;28;20156;-58
2023/04/24 10:28:07;;;;;;;5.10;3.03;;;;;;;;;;5019813;28;20527;-58
2023/04/24 10:30:37;;;;;;;8.07;3.13;;;;;;;;;;5020563;28;20177;-58
2023/04/24 10:33:04;;;;;;;4.97;3.40;;;;;;;;;;5035098;28;20034;-58
2023/04/24 10:35:31;;;;;;;8.05;2.95;;;;;;;;;;5019886;28;20046;-58
2023/04/24 10:38:00;;;;;;;5.60;3.47;;;;;;;;;;5020712;28;20058;-58
2023/04/24 10:40:28;;;;;;;6.72;3.25;;;;;;;;;;5019543;28;20053;-59
2023/04/24 10:42:54;;;;;;;6.65;2.80;;;;;;;;;;5020214;28;20057;-59
2023/04/24 10:45:21;;;;;;;6.57;3.53;;;;;;;;;;5019289;28;20038;-59
2023/04/24 10:47:58;;;;;;;4.75;2.85;;;;;;;;;;5020555;28;20095;-58
2023/04/24 10:50:26;;;;;;;6.28;3.00;;;;;;;;;;5018374;28;20042;-58
2023/04/24 10:52:54;;;;;;;5.00;2.50;;;;;;;;;;5019997;28;20038;-57
2023/04/24 10:55:39;;;;;;;8.60;2.80;;;;;;;;;;5019428;28;20097;-57
2023/04/24 10:58:05;;;;;;;3.83;2.78;;;;;;;;;;5019927;28;20042;-57
2023/04/24 11:00:31;;;;;;;6.82;4.43;;;;;;;;;;5019128;28;20054;-57
2023/04/24 11:02:58;;;;;;;5.00;2.20;;;;;;;;;;5015952;28;20413;-57
2023/04/24 11:05:44;;;;;;;11.55;4.03;;;;;;;;;;5016924;28;20040;-56
2023/04/24 11:08:17;;;;;;;4.75;2.08;;;;;;;;;;5016785;28;20041;-58
2023/04/24 11:10:47;;;;;;;5.30;3.47;;;;;;;;;;5017311;28;20050;-57
2023/04/24 11:13:17;;;;;;;5.97;3.70;;;;;;;;;;5016043;28;20536;-57
2023/04/24 11:15:43;;;;;;;4.95;3.03;;;;;;;;;;5017588;28;20050;-57
2023/04/24 11:18:15;;;;;;;6.03;3.22;;;;;;;;;;5016753;28;20503;-57
2023/04/24 11:20:45;;;;;;;6.18;3.03;;;;;;;;;;5016133;28;20393;-57
2023/04/24 11:23:12;;;;;;;6.55;2.78;;;;;;;;;;5016647;28;20073;-57
2023/04/24 11:25:39;;;;;;;3.95;2.95;;;;;;;;;;5015331;28;20046;-57
2023/04/24 11:28:05;;;;;;;3.78;2.85;;;;;;;;;;5016426;28;20065;-57
2023/04/24 11:30:36;;;;;;;3.70;2.33;;;;;;;;;;5014831;28;20046;-57
2023/04/24 11:33:03;;;;;;;8.45;3.05;;;;;;;;;;5016586;28;20041;-57
2023/04/24 11:35:30;;;;;;;4.00;2.83;;;;;;;;;;5015854;28;20101;-57
2023/04/24 11:37:56;;;;;;;3.53;2.42;;;;;;;;;;5016060;28;20099;-57
2023/04/24 11:40:23;;;;;;;6.03;2.67;;;;;;;;;;5015453;28;20732;-58
2023/04/24 11:42:55;;;;;;;5.10;2.90;;;;;;;;;;5015623;28;20145;-58
2023/04/24 11:45:21;;;;;;;;;;;;;;;;;;5015887;28;20058;-57
2023/04/24 11:47:47;;;;;;;5.03;2.25;;;;;;;;;;5016511;28;20029;-57
2023/04/24 11:50:14;;;;;;;3.83;2.70;;;;;;;;;;5014967;28;20504;-57
2023/04/24 11:52:41;;;;;;;8.20;3.47;;;;;;;;;;5015997;28;20046;-58
2023/04/24 11:55:27;;;;;;;11.68;3.20;;;;;;;;;;5015153;28;20554;-57
2023/04/24 11:57:56;;;;;;;5.40;3.20;;;;;;;;;;5016924;28;20046;-57
2023/04/24 12:00:29;;;;;;;4.07;1.90;;;;;;;;;;5014605;28;20050;-58
2023/04/24 12:03:08;;;;;;;6.60;2.30;;;;;;;;;;5016820;28;20488;-58
2023/04/24 12:05:34;;;;;;;5.90;3.42;;;;;;;;;;5015012;28;20487;-57
2023/04/24 12:08:01;;;;;;;7.28;2.90;;;;;;;;;;5015779;28;20630;-58
2023/04/24 12:10:28;;;;;;;4.07;2.58;;;;;;;;;;5014434;28;20123;-57
2023/04/24 12:12:55;;;;;;;4.35;2.72;;;;;;;;;;5015821;28;20039;-57
2023/04/24 12:15:22;;;;;;;3.50;2.42;;;;;;;;;;5014262;28;20042;-57
2023/04/24 12:17:48;;;;;;;5.38;2.88;;;;;;;;;;5016634;28;20046;-57
2023/04/24 12:20:15;;;;;;;4.93;2.38;;;;;;;;;;5014844;28;20528;-58
2023/04/24 12:22:48;;;;;;;3.03;1.83;;;;;;;;;;5015289;28;20203;-57
2023/04/24 12:25:15;;;;;;;4.22;2.38;;;;;;;;;;5015328;28;20544;-57
2023/04/24 12:27:41;;;;;;;5.93;2.67;;;;;;;;;;5046790;28;20069;-58
2023/04/24 12:30:11;;;;;;;3.97;1.90;;;;;;;;;;5014638;28;20050;-57
2023/04/24 12:32:41;;;;;;;2.80;1.83;;;;;;;;;;5014423;28;20038;-57
2023/04/24 12:35:07;;;;;;;4.57;2.13;;;;;;;;;;5015864;28;20596;-57
2023/04/24 12:37:34;;;;;;;4.00;2.00;;;;;;;;;;5014390;28;20034;-57
2023/04/24 12:40:06;;;;;;;7.43;2.22;;;;;;;;;;5016088;28;20411;-58
2023/04/24 12:42:32;;;;;;;3.22;1.83;;;;;;;;;;5013890;28;20069;-58
2023/04/24 12:45:00;;;;;;;5.88;2.33;;;;;;;;;;5015543;28;20034;-57
2023/04/24 12:47:26;;;;;;;5.43;2.65;;;;;;;;;;5013894;28;20165;-58
2023/04/24 12:49:53;;;;;;;2.88;2.05;;;;;;;;;;5014077;28;20053;-58
2023/04/24 12:52:26;;;;;;;8.18;2.88;;;;;;;;;;5014307;28;20046;-58
2023/04/24 12:54:56;;;;;;;4.40;2.38;;;;;;;;;;5008273;28;20962;-58
2023/04/24 12:57:25;;;;;;;3.15;2.47;;;;;;;;;;5014427;28;20585;-57
2023/04/24 12:59:53;;;;;;;4.22;2.63;;;;;;;;;;5016339;28;20050;-58
2023/04/24 13:02:19;;;;;;;2.95;2.10;;;;;;;;;;5013782;28;20045;-57
2023/04/24 13:04:48;;;;;;;4.32;2.05;;;;;;;;;;5015478;28;20064;-57
2023/04/24 13:07:14;;;;;;;3.67;2.05;;;;;;;;;;5013813;28;20152;-58
2023/04/24 13:09:41;;;;;;;4.88;1.85;;;;;;;;;;5014298;28;20049;-58
2023/04/24 13:12:07;;;;;;;4.25;2.25;;;;;;;;;;5013400;28;20037;-57
2023/04/24 13:14:34;;;;;;;4.82;2.00;;;;;;;;;;5013956;28;20464;-57
2023/04/24 13:17:00;;;;;;;4.40;2.10;;;;;;;;;;5030251;28;20173;-57
2023/04/24 13:19:27;;;;;;;3.17;2.15;;;;;;;;;;5013598;28;20045;-57
2023/04/24 13:21:53;;;;;;;5.75;3.13;;;;;;;;;;5014463;28;20090;-57
2023/04/24 13:24:19;;;;;;;4.07;2.22;;;;;;;;;;5013030;28;20042;-58
2023/04/24 13:26:46;;;;;;;4.13;2.40;;;;;;;;;;5013842;28;20034;-57
2023/04/24 13:29:12;;;;;;;4.20;2.17;;;;;;;;;;5013566;28;20050;-57
2023/04/24 13:31:38;;;;;;;3.53;2.20;;;;;;;;;;5014681;28;20046;-58
2023/04/24 13:34:04;;;;;;;4.60;2.75;;;;;;;;;;5014209;28;20039;-58
2023/04/24 13:36:31;;;;;;;4.05;2.10;;;;;;;;;;5014039;28;20046;-58
2023/04/24 13:38:57;;;;;;;3.42;2.03;;;;;;;;;;5029878;28;20139;-58
2023/04/24 13:41:23;;;;;;;4.38;2.10;;;;;;;;;;5013490;28;20092;-57
2023/04/24 13:43:50;;;;;;;3.03;2.03;;;;;;;;;;5014432;28;20058;-57
2023/04/24 13:46:16;;;;;;;4.32;2.03;;;;;;;;;;5019905;28;20129;-58
2023/04/24 13:48:42;;;;;;;3.75;2.58;;;;;;;;;;5030386;28;20585;-58
2023/04/24 13:51:08;;;;;;;4.82;1.95;;;;;;;;;;5013107;28;20038;-57
2023/04/24 13:53:38;;;;;;;3.40;1.92;;;;;;;;;;5013661;28;20097;-58
2023/04/24 13:56:04;;;;;;;3.83;2.28;;;;;;;;;;5013967;28;20528;-58
2023/04/24 13:58:30;;;;;;;5.25;1.92;;;;;;;;;;5029113;28;20768;-58
2023/04/24 14:00:56;;;;;;;2.78;1.70;;;;;;;;;;5012734;28;20534;-58
2023/04/24 14:03:22;;;;;;;4.20;2.08;;;;;;;;;;5013709;28;20077;-57
2023/04/24 14:05:48;;;;;;;3.72;1.60;;;;;;;;;;5013890;28;20061;-58
2023/04/24 14:08:15;;;;;;;4.50;1.98;;;;;;;;;;5013384;28;20566;-57
2023/04/24 14:10:41;;;;;;;17.50;2.15;;;;;;;;;;5012836;28;20046;-57
2023/04/24 14:13:07;;;;;;;3.70;2.25;;;;;;;;;;5013589;28;20042;-57
2023/04/24 14:15:33;;;;;;;2.58;1.63;;;;;;;;;;5006289;28;20092;-57
2023/04/24 14:17:59;;;;;;;4.50;2.03;;;;;;;;;;5013234;28;20050;-58
2023/04/24 14:20:25;;;;;;;5.47;1.90;;;;;;;;;;5014138;28;20048;-58
2023/04/24 14:22:53;;;;;;;7.18;2.35;;;;;;;;;;5013253;28;20423;-57
2023/04/24 14:25:19;;;;;;;3.47;1.95;;;;;;;;;;5012675;28;20041;-57
2023/04/24 14:27:46;;;;;;;4.85;1.83;;;;;;;;;;5013404;28;20073;-57
2023/04/24 14:30:13;;;;;;;8.18;2.42;;;;;;;;;;5013422;28;20069;-57
2023/04/24 14:32:39;;;;;;;3.03;1.88;;;;;;;;;;5005696;28;20034;-57
2023/04/24 14:35:06;;;;;;;5.32;2.13;;;;;;;;;;5014681;28;20125;-57
2023/04/24 14:37:32;;;;;;;4.65;2.10;;;;;;;;;;5014571;28;20556;-57
2023/04/24 14:39:58;;;;;;;4.45;1.92;;;;;;;;;;5016996;28;20116;-57
2023/04/24 14:42:25;;;;;;;3.17;2.15;;;;;;;;;;5016326;28;20853;-58